sensor_id;sensor_type;location;lat;lon;timestamp;P1;durP1;ratioP1;P2;durP2;ratioP2
6937;SDS011;40040;42.706;23.372;2023-12-20T00:01:15;290.90;;;84.73;;
6937;SDS011;40040;42.706;23.372;2023-12-20T00:03:42;248.33;;;74.90;;
6937;SDS011;40040;42.706;23.372;2023-12-20T00:06:09;239.07;;;72.60;;
6937;SDS011;40040;42.706;23.372;2023-12-20T00:08:36;210.63;;;67.63;;
6937;SDS011;40040;42.706;23.372;2023-12-20T00:11:03;179.93;;;58.00;;
6937;SDS011;40040;42.706;23.372;2023-12-20T00:13:30;171.57;;;56.83;;
6937;SDS011;40040;42.706;23.372;2023-12-20T00:15:59;151.13;;;50.97;;
6937;SDS011;40040;42.706;23.372;2023-12-20T00:18:26;184.90;;;53.13;;
6937;SDS011;40040;42.706;23.372;2023-12-20T00:20:52;191.10;;;57.27;;
6937;SDS011;40040;42.706;23.372;2023-12-20T00:23:19;202.60;;;56.93;;
6937;SDS011;40040;42.706;23.372;2023-12-20T00:25:48;186.70;;;58.83;;
6937;SDS011;40040;42.706;23.372;2023-12-20T00:28:15;169.57;;;52.23;;
6937;SDS011;40040;42.706;23.372;2023-12-20T00:30:42;153.80;;;52.07;;
6937;SDS011;40040;42.706;23.372;2023-12-20T00:33:10;130.30;;;43.93;;
6937;SDS011;40040;42.706;23.372;2023-12-20T00:35:37;113.60;;;41.30;;
6937;SDS011;40040;42.706;23.372;2023-12-20T00:38:04;118.40;;;41.87;;
6937;SDS011;40040;42.706;23.372;2023-12-20T00:40:32;121.33;;;41.50;;
6937;SDS011;40040;42.706;23.372;2023-12-20T00:42:59;133.13;;;42.03;;
6937;SDS011;40040;42.706;23.372;2023-12-20T00:45:26;123.23;;;38.03;;
6937;SDS011;40040;42.706;23.372;2023-12-20T00:47:53;129.40;;;41.57;;
6937;SDS011;40040;42.706;23.372;2023-12-20T00:50:21;139.43;;;42.97;;
6937;SDS011;40040;42.706;23.372;2023-12-20T00:52:48;121.67;;;41.37;;
6937;SDS011;40040;42.706;23.372;2023-12-20T00:55:15;136.63;;;43.37;;
6937;SDS011;40040;42.706;23.372;2023-12-20T00:57:41;131.17;;;43.27;;
6937;SDS011;40040;42.706;23.372;2023-12-20T01:00:09;113.73;;;41.03;;
6937;SDS011;40040;42.706;23.372;2023-12-20T01:02:36;106.53;;;41.00;;
6937;SDS011;40040;42.706;23.372;2023-12-20T01:05:03;102.20;;;37.93;;
6937;SDS011;40040;42.706;23.372;2023-12-20T01:07:32;103.00;;;39.83;;
6937;SDS011;40040;42.706;23.372;2023-12-20T01:09:59;98.83;;;38.93;;
6937;SDS011;40040;42.706;23.372;2023-12-20T01:12:26;118.07;;;40.87;;
6937;SDS011;40040;42.706;23.372;2023-12-20T01:14:53;96.87;;;37.73;;
6937;SDS011;40040;42.706;23.372;2023-12-20T01:17:20;97.63;;;36.60;;
6937;SDS011;40040;42.706;23.372;2023-12-20T01:19:46;93.43;;;35.20;;
6937;SDS011;40040;42.706;23.372;2023-12-20T01:22:13;86.53;;;33.20;;
6937;SDS011;40040;42.706;23.372;2023-12-20T01:24:41;88.23;;;35.73;;
6937;SDS011;40040;42.706;23.372;2023-12-20T01:27:08;91.93;;;35.00;;
6937;SDS011;40040;42.706;23.372;2023-12-20T01:29:35;95.03;;;36.67;;
6937;SDS011;40040;42.706;23.372;2023-12-20T01:32:02;72.93;;;28.73;;
6937;SDS011;40040;42.706;23.372;2023-12-20T01:34:29;67.50;;;25.97;;
6937;SDS011;40040;42.706;23.372;2023-12-20T01:36:56;70.13;;;28.70;;
6937;SDS011;40040;42.706;23.372;2023-12-20T01:39:23;97.10;;;34.90;;
6937;SDS011;40040;42.706;23.372;2023-12-20T01:41:51;80.73;;;32.50;;
6937;SDS011;40040;42.706;23.372;2023-12-20T01:44:18;78.50;;;29.37;;
6937;SDS011;40040;42.706;23.372;2023-12-20T01:46:45;69.03;;;27.90;;
6937;SDS011;40040;42.706;23.372;2023-12-20T01:49:13;85.60;;;32.27;;
6937;SDS011;40040;42.706;23.372;2023-12-20T01:51:40;81.27;;;31.83;;
6937;SDS011;40040;42.706;23.372;2023-12-20T01:54:08;80.70;;;30.40;;
6937;SDS011;40040;42.706;23.372;2023-12-20T01:56:35;79.97;;;30.50;;
6937;SDS011;40040;42.706;23.372;2023-12-20T01:59:03;77.87;;;31.47;;
6937;SDS011;40040;42.706;23.372;2023-12-20T02:01:30;82.67;;;31.87;;
6937;SDS011;40040;42.706;23.372;2023-12-20T02:03:57;95.37;;;34.50;;
6937;SDS011;40040;42.706;23.372;2023-12-20T02:06:25;91.77;;;34.47;;
6937;SDS011;40040;42.706;23.372;2023-12-20T02:08:56;88.30;;;32.70;;
6937;SDS011;40040;42.706;23.372;2023-12-20T02:11:23;84.23;;;32.17;;
6937;SDS011;40040;42.706;23.372;2023-12-20T02:13:51;104.30;;;32.33;;
6937;SDS011;40040;42.706;23.372;2023-12-20T02:16:19;86.00;;;32.70;;
6937;SDS011;40040;42.706;23.372;2023-12-20T02:18:47;84.33;;;33.87;;
6937;SDS011;40040;42.706;23.372;2023-12-20T02:21:14;85.87;;;34.10;;
6937;SDS011;40040;42.706;23.372;2023-12-20T02:23:42;98.80;;;34.90;;
6937;SDS011;40040;42.706;23.372;2023-12-20T02:26:09;91.57;;;33.47;;
6937;SDS011;40040;42.706;23.372;2023-12-20T02:28:36;113.43;;;34.60;;
6937;SDS011;40040;42.706;23.372;2023-12-20T02:31:04;101.83;;;33.97;;
6937;SDS011;40040;42.706;23.372;2023-12-20T02:33:30;97.13;;;35.37;;
6937;SDS011;40040;42.706;23.372;2023-12-20T02:35:57;108.77;;;37.77;;
6937;SDS011;40040;42.706;23.372;2023-12-20T02:38:24;156.47;;;46.57;;
6937;SDS011;40040;42.706;23.372;2023-12-20T02:40:52;147.07;;;48.00;;
6937;SDS011;40040;42.706;23.372;2023-12-20T02:43:19;178.60;;;48.90;;
6937;SDS011;40040;42.706;23.372;2023-12-20T02:45:45;153.97;;;47.40;;
6937;SDS011;40040;42.706;23.372;2023-12-20T02:48:12;161.60;;;50.03;;
6937;SDS011;40040;42.706;23.372;2023-12-20T02:50:39;155.07;;;45.97;;
6937;SDS011;40040;42.706;23.372;2023-12-20T02:53:06;141.83;;;43.67;;
6937;SDS011;40040;42.706;23.372;2023-12-20T02:55:33;134.80;;;42.97;;
6937;SDS011;40040;42.706;23.372;2023-12-20T02:58:01;142.97;;;40.97;;
6937;SDS011;40040;42.706;23.372;2023-12-20T03:00:28;126.87;;;37.53;;
6937;SDS011;40040;42.706;23.372;2023-12-20T03:02:54;116.67;;;39.90;;
6937;SDS011;40040;42.706;23.372;2023-12-20T03:05:21;127.77;;;42.40;;
6937;SDS011;40040;42.706;23.372;2023-12-20T03:07:48;122.83;;;39.87;;
6937;SDS011;40040;42.706;23.372;2023-12-20T03:10:15;135.27;;;40.27;;
6937;SDS011;40040;42.706;23.372;2023-12-20T03:12:41;133.17;;;42.30;;
6937;SDS011;40040;42.706;23.372;2023-12-20T03:15:10;136.67;;;43.60;;
6937;SDS011;40040;42.706;23.372;2023-12-20T03:17:37;135.17;;;42.80;;
6937;SDS011;40040;42.706;23.372;2023-12-20T03:20:04;124.80;;;42.27;;
6937;SDS011;40040;42.706;23.372;2023-12-20T03:22:32;131.10;;;42.97;;
6937;SDS011;40040;42.706;23.372;2023-12-20T03:24:58;103.73;;;36.20;;
6937;SDS011;40040;42.706;23.372;2023-12-20T03:27:25;111.73;;;34.20;;
6937;SDS011;40040;42.706;23.372;2023-12-20T03:29:52;112.33;;;35.13;;
6937;SDS011;40040;42.706;23.372;2023-12-20T03:32:20;102.27;;;34.53;;
6937;SDS011;40040;42.706;23.372;2023-12-20T03:34:47;125.33;;;39.27;;
6937;SDS011;40040;42.706;23.372;2023-12-20T03:37:14;129.57;;;41.50;;
6937;SDS011;40040;42.706;23.372;2023-12-20T03:39:41;119.50;;;43.37;;
6937;SDS011;40040;42.706;23.372;2023-12-20T03:42:08;119.17;;;42.30;;
6937;SDS011;40040;42.706;23.372;2023-12-20T03:44:37;134.07;;;42.77;;
6937;SDS011;40040;42.706;23.372;2023-12-20T03:47:04;146.60;;;44.97;;
6937;SDS011;40040;42.706;23.372;2023-12-20T03:49:33;128.47;;;43.87;;
6937;SDS011;40040;42.706;23.372;2023-12-20T03:52:02;154.23;;;51.40;;
6937;SDS011;40040;42.706;23.372;2023-12-20T03:54:29;132.67;;;45.83;;
6937;SDS011;40040;42.706;23.372;2023-12-20T03:56:56;151.90;;;47.33;;
6937;SDS011;40040;42.706;23.372;2023-12-20T03:59:23;140.10;;;48.60;;
6937;SDS011;40040;42.706;23.372;2023-12-20T04:01:50;133.37;;;46.07;;
6937;SDS011;40040;42.706;23.372;2023-12-20T04:04:17;128.07;;;39.97;;
6937;SDS011;40040;42.706;23.372;2023-12-20T04:06:45;123.67;;;42.00;;
6937;SDS011;40040;42.706;23.372;2023-12-20T04:09:12;115.67;;;40.93;;
6937;SDS011;40040;42.706;23.372;2023-12-20T04:11:39;132.93;;;44.17;;
6937;SDS011;40040;42.706;23.372;2023-12-20T04:14:06;116.47;;;41.43;;
6937;SDS011;40040;42.706;23.372;2023-12-20T04:16:32;138.90;;;42.03;;
6937;SDS011;40040;42.706;23.372;2023-12-20T04:18:59;92.57;;;34.50;;
6937;SDS011;40040;42.706;23.372;2023-12-20T04:21:26;115.40;;;37.80;;
6937;SDS011;40040;42.706;23.372;2023-12-20T04:23:54;105.27;;;37.57;;
6937;SDS011;40040;42.706;23.372;2023-12-20T04:26:21;101.40;;;33.77;;
6937;SDS011;40040;42.706;23.372;2023-12-20T04:28:48;86.33;;;29.10;;
6937;SDS011;40040;42.706;23.372;2023-12-20T04:31:14;73.87;;;25.07;;
6937;SDS011;40040;42.706;23.372;2023-12-20T04:33:41;62.10;;;23.80;;
6937;SDS011;40040;42.706;23.372;2023-12-20T04:36:08;94.10;;;30.00;;
6937;SDS011;40040;42.706;23.372;2023-12-20T04:38:35;89.50;;;32.20;;
6937;SDS011;40040;42.706;23.372;2023-12-20T04:41:03;123.63;;;39.87;;
6937;SDS011;40040;42.706;23.372;2023-12-20T04:43:30;180.23;;;60.13;;
6937;SDS011;40040;42.706;23.372;2023-12-20T04:45:57;152.60;;;50.23;;
6937;SDS011;40040;42.706;23.372;2023-12-20T04:48:24;98.83;;;34.47;;
6937;SDS011;40040;42.706;23.372;2023-12-20T04:50:51;91.33;;;33.07;;
6937;SDS011;40040;42.706;23.372;2023-12-20T04:53:18;108.30;;;37.87;;
6937;SDS011;40040;42.706;23.372;2023-12-20T04:55:44;91.93;;;32.87;;
6937;SDS011;40040;42.706;23.372;2023-12-20T04:58:13;82.50;;;29.83;;
6937;SDS011;40040;42.706;23.372;2023-12-20T05:00:39;95.83;;;32.00;;
6937;SDS011;40040;42.706;23.372;2023-12-20T05:03:06;80.37;;;30.17;;
6937;SDS011;40040;42.706;23.372;2023-12-20T05:05:34;71.40;;;27.80;;
6937;SDS011;40040;42.706;23.372;2023-12-20T05:08:01;61.13;;;25.97;;
6937;SDS011;40040;42.706;23.372;2023-12-20T05:10:28;84.17;;;27.87;;
6937;SDS011;40040;42.706;23.372;2023-12-20T05:12:55;74.10;;;26.53;;
6937;SDS011;40040;42.706;23.372;2023-12-20T05:15:23;94.90;;;28.13;;
6937;SDS011;40040;42.706;23.372;2023-12-20T05:17:50;77.60;;;28.30;;
6937;SDS011;40040;42.706;23.372;2023-12-20T05:20:16;62.63;;;24.97;;
6937;SDS011;40040;42.706;23.372;2023-12-20T05:22:43;82.07;;;26.00;;
6937;SDS011;40040;42.706;23.372;2023-12-20T05:25:11;72.40;;;27.67;;
6937;SDS011;40040;42.706;23.372;2023-12-20T05:27:38;66.33;;;26.03;;
6937;SDS011;40040;42.706;23.372;2023-12-20T05:30:05;72.87;;;25.67;;
6937;SDS011;40040;42.706;23.372;2023-12-20T05:32:34;68.90;;;23.50;;
6937;SDS011;40040;42.706;23.372;2023-12-20T05:35:01;65.23;;;24.83;;
6937;SDS011;40040;42.706;23.372;2023-12-20T05:37:28;61.80;;;24.93;;
6937;SDS011;40040;42.706;23.372;2023-12-20T05:39:55;70.90;;;24.30;;
6937;SDS011;40040;42.706;23.372;2023-12-20T05:42:22;65.70;;;26.13;;
6937;SDS011;40040;42.706;23.372;2023-12-20T05:44:48;65.30;;;26.73;;
6937;SDS011;40040;42.706;23.372;2023-12-20T05:47:15;70.07;;;24.53;;
6937;SDS011;40040;42.706;23.372;2023-12-20T05:49:45;62.00;;;24.67;;
6937;SDS011;40040;42.706;23.372;2023-12-20T05:52:12;70.67;;;23.70;;
6937;SDS011;40040;42.706;23.372;2023-12-20T05:54:38;73.40;;;26.13;;
6937;SDS011;40040;42.706;23.372;2023-12-20T05:57:05;73.23;;;27.77;;
6937;SDS011;40040;42.706;23.372;2023-12-20T05:59:32;66.17;;;26.43;;
6937;SDS011;40040;42.706;23.372;2023-12-20T06:01:59;69.93;;;27.27;;
6937;SDS011;40040;42.706;23.372;2023-12-20T06:04:26;63.93;;;25.03;;
6937;SDS011;40040;42.706;23.372;2023-12-20T06:06:54;63.17;;;24.83;;
6937;SDS011;40040;42.706;23.372;2023-12-20T06:09:21;71.60;;;27.70;;
6937;SDS011;40040;42.706;23.372;2023-12-20T06:11:47;77.17;;;27.83;;
6937;SDS011;40040;42.706;23.372;2023-12-20T06:14:14;77.23;;;27.27;;
6937;SDS011;40040;42.706;23.372;2023-12-20T06:16:41;79.73;;;29.23;;
6937;SDS011;40040;42.706;23.372;2023-12-20T06:19:08;66.67;;;28.67;;
6937;SDS011;40040;42.706;23.372;2023-12-20T06:21:35;77.43;;;30.03;;
6937;SDS011;40040;42.706;23.372;2023-12-20T06:24:03;78.43;;;30.03;;
6937;SDS011;40040;42.706;23.372;2023-12-20T06:26:30;93.10;;;29.73;;
6937;SDS011;40040;42.706;23.372;2023-12-20T06:28:58;89.77;;;29.97;;
6937;SDS011;40040;42.706;23.372;2023-12-20T06:31:25;83.97;;;29.73;;
6937;SDS011;40040;42.706;23.372;2023-12-20T06:33:51;104.30;;;28.87;;
6937;SDS011;40040;42.706;23.372;2023-12-20T06:36:22;122.20;;;34.97;;
6937;SDS011;40040;42.706;23.372;2023-12-20T06:38:49;143.43;;;37.50;;
6937;SDS011;40040;42.706;23.372;2023-12-20T06:41:17;143.17;;;33.20;;
6937;SDS011;40040;42.706;23.372;2023-12-20T06:43:44;81.37;;;25.27;;
6937;SDS011;40040;42.706;23.372;2023-12-20T06:46:12;78.93;;;26.00;;
6937;SDS011;40040;42.706;23.372;2023-12-20T06:48:39;87.50;;;25.60;;
6937;SDS011;40040;42.706;23.372;2023-12-20T06:51:06;72.83;;;23.07;;
6937;SDS011;40040;42.706;23.372;2023-12-20T06:53:33;74.70;;;23.73;;
6937;SDS011;40040;42.706;23.372;2023-12-20T06:56:00;111.13;;;27.17;;
6937;SDS011;40040;42.706;23.372;2023-12-20T06:58:28;114.43;;;31.30;;
6937;SDS011;40040;42.706;23.372;2023-12-20T07:00:54;76.77;;;22.20;;
6937;SDS011;40040;42.706;23.372;2023-12-20T07:03:21;72.60;;;21.50;;
6937;SDS011;40040;42.706;23.372;2023-12-20T07:05:48;55.97;;;21.13;;
6937;SDS011;40040;42.706;23.372;2023-12-20T07:08:15;60.37;;;23.27;;
6937;SDS011;40040;42.706;23.372;2023-12-20T07:10:42;69.00;;;22.73;;
6937;SDS011;40040;42.706;23.372;2023-12-20T07:13:08;79.63;;;27.23;;
6937;SDS011;40040;42.706;23.372;2023-12-20T07:15:37;79.17;;;24.97;;
6937;SDS011;40040;42.706;23.372;2023-12-20T07:18:04;79.93;;;26.30;;
6937;SDS011;40040;42.706;23.372;2023-12-20T07:20:31;91.03;;;26.17;;
6937;SDS011;40040;42.706;23.372;2023-12-20T07:22:59;76.03;;;25.07;;
6937;SDS011;40040;42.706;23.372;2023-12-20T07:25:26;68.37;;;24.67;;
6937;SDS011;40040;42.706;23.372;2023-12-20T07:27:53;66.17;;;24.60;;
6937;SDS011;40040;42.706;23.372;2023-12-20T07:30:20;64.63;;;25.37;;
6937;SDS011;40040;42.706;23.372;2023-12-20T07:32:48;89.83;;;35.43;;
6937;SDS011;40040;42.706;23.372;2023-12-20T07:35:15;67.07;;;27.03;;
6937;SDS011;40040;42.706;23.372;2023-12-20T07:37:42;69.37;;;27.07;;
6937;SDS011;40040;42.706;23.372;2023-12-20T07:40:09;84.50;;;29.63;;
6937;SDS011;40040;42.706;23.372;2023-12-20T07:42:36;83.87;;;27.53;;
6937;SDS011;40040;42.706;23.372;2023-12-20T07:45:03;77.77;;;25.23;;
6937;SDS011;40040;42.706;23.372;2023-12-20T07:47:31;78.70;;;26.87;;
6937;SDS011;40040;42.706;23.372;2023-12-20T07:49:59;78.20;;;29.93;;
6937;SDS011;40040;42.706;23.372;2023-12-20T07:52:26;94.37;;;29.70;;
6937;SDS011;40040;42.706;23.372;2023-12-20T07:54:52;81.17;;;30.10;;
6937;SDS011;40040;42.706;23.372;2023-12-20T07:57:19;99.23;;;34.87;;
6937;SDS011;40040;42.706;23.372;2023-12-20T07:59:46;88.83;;;33.30;;
6937;SDS011;40040;42.706;23.372;2023-12-20T08:02:13;88.23;;;31.53;;
6937;SDS011;40040;42.706;23.372;2023-12-20T08:04:40;85.57;;;32.17;;
6937;SDS011;40040;42.706;23.372;2023-12-20T08:07:08;94.63;;;33.43;;
6937;SDS011;40040;42.706;23.372;2023-12-20T08:09:35;113.77;;;35.37;;
6937;SDS011;40040;42.706;23.372;2023-12-20T08:12:02;109.87;;;36.57;;
6937;SDS011;40040;42.706;23.372;2023-12-20T08:14:29;106.67;;;37.07;;
6937;SDS011;40040;42.706;23.372;2023-12-20T08:16:56;110.07;;;37.53;;
6937;SDS011;40040;42.706;23.372;2023-12-20T08:19:23;109.47;;;36.77;;
6937;SDS011;40040;42.706;23.372;2023-12-20T08:21:50;111.07;;;37.93;;
6937;SDS011;40040;42.706;23.372;2023-12-20T08:24:18;127.33;;;37.20;;
6937;SDS011;40040;42.706;23.372;2023-12-20T08:26:45;117.47;;;37.47;;
6937;SDS011;40040;42.706;23.372;2023-12-20T08:29:12;118.67;;;39.43;;
6937;SDS011;40040;42.706;23.372;2023-12-20T08:31:39;107.40;;;40.00;;
6937;SDS011;40040;42.706;23.372;2023-12-20T08:34:06;114.53;;;42.13;;
6937;SDS011;40040;42.706;23.372;2023-12-20T08:36:33;148.50;;;42.67;;
6937;SDS011;40040;42.706;23.372;2023-12-20T08:39:00;120.90;;;41.57;;
6937;SDS011;40040;42.706;23.372;2023-12-20T08:41:30;114.77;;;39.67;;
6937;SDS011;40040;42.706;23.372;2023-12-20T08:43:57;114.50;;;38.90;;
6937;SDS011;40040;42.706;23.372;2023-12-20T08:46:24;111.30;;;38.70;;
6937;SDS011;40040;42.706;23.372;2023-12-20T08:48:50;114.37;;;38.93;;
6937;SDS011;40040;42.706;23.372;2023-12-20T08:51:17;112.50;;;38.30;;
6937;SDS011;40040;42.706;23.372;2023-12-20T08:53:44;95.53;;;36.83;;
6937;SDS011;40040;42.706;23.372;2023-12-20T08:56:12;115.63;;;37.40;;
6937;SDS011;40040;42.706;23.372;2023-12-20T08:58:41;111.30;;;40.73;;
6937;SDS011;40040;42.706;23.372;2023-12-20T09:01:09;115.80;;;38.27;;
6937;SDS011;40040;42.706;23.372;2023-12-20T09:03:35;110.57;;;37.17;;
6937;SDS011;40040;42.706;23.372;2023-12-20T09:06:03;108.07;;;39.70;;
6937;SDS011;40040;42.706;23.372;2023-12-20T09:08:30;102.87;;;37.27;;
6937;SDS011;40040;42.706;23.372;2023-12-20T09:10:57;115.67;;;37.90;;
6937;SDS011;40040;42.706;23.372;2023-12-20T09:13:24;117.53;;;37.57;;
6937;SDS011;40040;42.706;23.372;2023-12-20T09:15:54;105.03;;;35.57;;
6937;SDS011;40040;42.706;23.372;2023-12-20T09:18:21;95.67;;;36.90;;
6937;SDS011;40040;42.706;23.372;2023-12-20T09:20:48;122.93;;;40.37;;
6937;SDS011;40040;42.706;23.372;2023-12-20T09:23:15;110.43;;;40.37;;
6937;SDS011;40040;42.706;23.372;2023-12-20T09:25:43;97.63;;;36.80;;
6937;SDS011;40040;42.706;23.372;2023-12-20T09:28:10;104.63;;;36.03;;
6937;SDS011;40040;42.706;23.372;2023-12-20T09:30:37;117.67;;;37.93;;
6937;SDS011;40040;42.706;23.372;2023-12-20T09:33:06;93.37;;;33.63;;
6937;SDS011;40040;42.706;23.372;2023-12-20T09:35:33;89.87;;;32.37;;
6937;SDS011;40040;42.706;23.372;2023-12-20T09:38:00;77.53;;;29.70;;
6937;SDS011;40040;42.706;23.372;2023-12-20T09:40:26;84.77;;;30.93;;
6937;SDS011;40040;42.706;23.372;2023-12-20T09:42:56;95.10;;;33.70;;
6937;SDS011;40040;42.706;23.372;2023-12-20T09:45:24;86.50;;;29.67;;
6937;SDS011;40040;42.706;23.372;2023-12-20T09:47:51;81.00;;;28.87;;
6937;SDS011;40040;42.706;23.372;2023-12-20T09:50:21;85.57;;;29.73;;
6937;SDS011;40040;42.706;23.372;2023-12-20T09:52:49;83.87;;;30.27;;
6937;SDS011;40040;42.706;23.372;2023-12-20T09:55:17;80.30;;;30.60;;
6937;SDS011;40040;42.706;23.372;2023-12-20T09:57:45;79.77;;;29.40;;
6937;SDS011;40040;42.706;23.372;2023-12-20T10:00:12;70.63;;;26.70;;
6937;SDS011;40040;42.706;23.372;2023-12-20T10:02:45;60.83;;;24.43;;
6937;SDS011;40040;42.706;23.372;2023-12-20T10:05:17;135.47;;;46.30;;
6937;SDS011;40040;42.706;23.372;2023-12-20T10:07:46;98.43;;;37.10;;
6937;SDS011;40040;42.706;23.372;2023-12-20T10:10:13;69.23;;;26.87;;
6937;SDS011;40040;42.706;23.372;2023-12-20T10:12:40;80.50;;;29.53;;
6937;SDS011;40040;42.706;23.372;2023-12-20T10:15:28;82.67;;;32.07;;
6937;SDS011;40040;42.706;23.372;2023-12-20T10:17:55;67.67;;;24.67;;
6937;SDS011;40040;42.706;23.372;2023-12-20T10:20:23;80.20;;;28.30;;
6937;SDS011;40040;42.706;23.372;2023-12-20T10:22:51;106.50;;;36.33;;
6937;SDS011;40040;42.706;23.372;2023-12-20T10:25:18;108.50;;;37.33;;
6937;SDS011;40040;42.706;23.372;2023-12-20T10:27:46;95.97;;;34.47;;
6937;SDS011;40040;42.706;23.372;2023-12-20T10:30:13;78.30;;;31.30;;
6937;SDS011;40040;42.706;23.372;2023-12-20T10:32:40;91.30;;;33.53;;
6937;SDS011;40040;42.706;23.372;2023-12-20T10:35:08;88.83;;;32.10;;
6937;SDS011;40040;42.706;23.372;2023-12-20T10:37:35;90.67;;;33.27;;
6937;SDS011;40040;42.706;23.372;2023-12-20T10:40:04;99.43;;;34.17;;
6937;SDS011;40040;42.706;23.372;2023-12-20T10:42:32;115.80;;;41.77;;
6937;SDS011;40040;42.706;23.372;2023-12-20T10:45:00;131.23;;;45.90;;
6937;SDS011;40040;42.706;23.372;2023-12-20T10:47:27;288.37;;;101.07;;
6937;SDS011;40040;42.706;23.372;2023-12-20T10:49:57;135.57;;;47.83;;
6937;SDS011;40040;42.706;23.372;2023-12-20T10:52:25;113.50;;;38.47;;
6937;SDS011;40040;42.706;23.372;2023-12-20T10:54:55;115.60;;;40.93;;
6937;SDS011;40040;42.706;23.372;2023-12-20T10:57:24;107.43;;;39.73;;
6937;SDS011;40040;42.706;23.372;2023-12-20T10:59:53;109.83;;;40.47;;
6937;SDS011;40040;42.706;23.372;2023-12-20T11:02:22;117.47;;;41.83;;
6937;SDS011;40040;42.706;23.372;2023-12-20T11:04:51;97.47;;;35.73;;
6937;SDS011;40040;42.706;23.372;2023-12-20T11:07:23;98.33;;;34.63;;
6937;SDS011;40040;42.706;23.372;2023-12-20T11:10:03;93.57;;;35.60;;
6937;SDS011;40040;42.706;23.372;2023-12-20T11:12:43;90.07;;;35.23;;
6937;SDS011;40040;42.706;23.372;2023-12-20T11:15:15;96.10;;;38.27;;
6937;SDS011;40040;42.706;23.372;2023-12-20T11:17:44;101.47;;;39.83;;
6937;SDS011;40040;42.706;23.372;2023-12-20T11:20:11;96.53;;;36.20;;
6937;SDS011;40040;42.706;23.372;2023-12-20T11:22:38;177.10;;;75.30;;
6937;SDS011;40040;42.706;23.372;2023-12-20T11:25:18;103.20;;;42.10;;
6937;SDS011;40040;42.706;23.372;2023-12-20T11:28:06;99.33;;;38.20;;
6937;SDS011;40040;42.706;23.372;2023-12-20T11:30:40;100.53;;;38.03;;
6937;SDS011;40040;42.706;23.372;2023-12-20T11:33:07;108.50;;;40.83;;
6937;SDS011;40040;42.706;23.372;2023-12-20T11:35:34;86.40;;;35.77;;
6937;SDS011;40040;42.706;23.372;2023-12-20T11:38:02;98.93;;;40.57;;
6937;SDS011;40040;42.706;23.372;2023-12-20T11:40:29;102.40;;;42.47;;
6937;SDS011;40040;42.706;23.372;2023-12-20T11:43:02;89.50;;;36.70;;
6937;SDS011;40040;42.706;23.372;2023-12-20T11:45:30;90.90;;;38.00;;
6937;SDS011;40040;42.706;23.372;2023-12-20T11:47:57;92.73;;;38.03;;
6937;SDS011;40040;42.706;23.372;2023-12-20T11:50:25;113.07;;;48.80;;
6937;SDS011;40040;42.706;23.372;2023-12-20T11:52:53;100.97;;;41.60;;
6937;SDS011;40040;42.706;23.372;2023-12-20T11:55:20;95.20;;;39.53;;
6937;SDS011;40040;42.706;23.372;2023-12-20T11:57:49;134.53;;;50.97;;
6937;SDS011;40040;42.706;23.372;2023-12-20T12:00:18;125.53;;;47.73;;
6937;SDS011;40040;42.706;23.372;2023-12-20T12:02:54;131.93;;;48.90;;
6937;SDS011;40040;42.706;23.372;2023-12-20T12:05:22;116.27;;;47.57;;
6937;SDS011;40040;42.706;23.372;2023-12-20T12:07:49;111.67;;;42.80;;
6937;SDS011;40040;42.706;23.372;2023-12-20T12:10:16;82.63;;;34.93;;
6937;SDS011;40040;42.706;23.372;2023-12-20T12:12:43;103.10;;;39.87;;
6937;SDS011;40040;42.706;23.372;2023-12-20T12:15:09;92.07;;;35.27;;
6937;SDS011;40040;42.706;23.372;2023-12-20T12:17:38;104.87;;;41.53;;
6937;SDS011;40040;42.706;23.372;2023-12-20T12:20:05;137.47;;;44.20;;
6937;SDS011;40040;42.706;23.372;2023-12-20T12:22:33;108.83;;;41.53;;
6937;SDS011;40040;42.706;23.372;2023-12-20T12:25:09;120.83;;;46.90;;
6937;SDS011;40040;42.706;23.372;2023-12-20T12:27:39;102.27;;;38.03;;
6937;SDS011;40040;42.706;23.372;2023-12-20T12:30:06;88.67;;;34.80;;
6937;SDS011;40040;42.706;23.372;2023-12-20T12:32:34;90.50;;;35.83;;
6937;SDS011;40040;42.706;23.372;2023-12-20T12:35:04;103.17;;;35.07;;
6937;SDS011;40040;42.706;23.372;2023-12-20T12:37:33;89.70;;;32.87;;
6937;SDS011;40040;42.706;23.372;2023-12-20T12:40:01;81.13;;;30.07;;
6937;SDS011;40040;42.706;23.372;2023-12-20T12:42:30;81.67;;;31.60;;
6937;SDS011;40040;42.706;23.372;2023-12-20T12:44:57;88.47;;;32.97;;
6937;SDS011;40040;42.706;23.372;2023-12-20T12:47:23;77.30;;;29.90;;
6937;SDS011;40040;42.706;23.372;2023-12-20T12:49:51;73.87;;;29.73;;
6937;SDS011;40040;42.706;23.372;2023-12-20T12:52:19;89.00;;;33.83;;
6937;SDS011;40040;42.706;23.372;2023-12-20T12:54:46;81.13;;;28.47;;
6937;SDS011;40040;42.706;23.372;2023-12-20T12:57:13;76.03;;;30.23;;
6937;SDS011;40040;42.706;23.372;2023-12-20T12:59:41;78.20;;;29.37;;
6937;SDS011;40040;42.706;23.372;2023-12-20T13:02:09;87.37;;;31.60;;
6937;SDS011;40040;42.706;23.372;2023-12-20T13:04:35;83.80;;;31.97;;
6937;SDS011;40040;42.706;23.372;2023-12-20T13:07:02;89.80;;;33.13;;
6937;SDS011;40040;42.706;23.372;2023-12-20T13:09:31;113.00;;;42.60;;
6937;SDS011;40040;42.706;23.372;2023-12-20T13:11:58;102.60;;;37.03;;
6937;SDS011;40040;42.706;23.372;2023-12-20T13:14:28;96.97;;;34.23;;
6937;SDS011;40040;42.706;23.372;2023-12-20T13:16:55;99.63;;;35.67;;
6937;SDS011;40040;42.706;23.372;2023-12-20T13:19:21;80.90;;;31.17;;
6937;SDS011;40040;42.706;23.372;2023-12-20T13:21:49;86.60;;;32.10;;
6937;SDS011;40040;42.706;23.372;2023-12-20T13:24:16;84.63;;;30.63;;
6937;SDS011;40040;42.706;23.372;2023-12-20T13:26:45;73.43;;;29.57;;
6937;SDS011;40040;42.706;23.372;2023-12-20T13:29:12;81.80;;;31.23;;
6937;SDS011;40040;42.706;23.372;2023-12-20T13:31:39;83.20;;;33.07;;
6937;SDS011;40040;42.706;23.372;2023-12-20T13:34:06;80.53;;;31.00;;
6937;SDS011;40040;42.706;23.372;2023-12-20T13:36:32;85.23;;;32.00;;
6937;SDS011;40040;42.706;23.372;2023-12-20T13:38:59;80.23;;;31.97;;
6937;SDS011;40040;42.706;23.372;2023-12-20T13:41:28;88.57;;;33.70;;
6937;SDS011;40040;42.706;23.372;2023-12-20T13:43:56;85.50;;;30.67;;
6937;SDS011;40040;42.706;23.372;2023-12-20T13:46:23;91.40;;;33.10;;
6937;SDS011;40040;42.706;23.372;2023-12-20T13:48:50;91.23;;;32.90;;
6937;SDS011;40040;42.706;23.372;2023-12-20T13:51:17;94.33;;;35.53;;
6937;SDS011;40040;42.706;23.372;2023-12-20T13:53:43;101.80;;;36.33;;
6937;SDS011;40040;42.706;23.372;2023-12-20T13:56:10;118.17;;;33.43;;
6937;SDS011;40040;42.706;23.372;2023-12-20T13:58:37;102.23;;;33.87;;
6937;SDS011;40040;42.706;23.372;2023-12-20T14:01:06;96.47;;;34.67;;
6937;SDS011;40040;42.706;23.372;2023-12-20T14:03:33;106.03;;;34.63;;
6937;SDS011;40040;42.706;23.372;2023-12-20T14:06:00;135.47;;;39.33;;
6937;SDS011;40040;42.706;23.372;2023-12-20T14:08:27;129.97;;;40.27;;
6937;SDS011;40040;42.706;23.372;2023-12-20T14:10:54;118.80;;;40.47;;
6937;SDS011;40040;42.706;23.372;2023-12-20T14:13:19;130.30;;;39.13;;
6937;SDS011;40040;42.706;23.372;2023-12-20T14:15:47;138.93;;;42.87;;
6937;SDS011;40040;42.706;23.372;2023-12-20T14:18:15;206.37;;;64.80;;